Terminal Aerodrome Forecast
Issued by NWS

Home | Current Version | Previous Version | Text Only | Print | Product List | Glossary On
Versions: 1 2 3 4 5 6 7 8 9 10 11 12 13 14 15 16
000
FTUS41 KBTV 291136
TAFPBG
TAF
KPBG 291136Z 2912/3012 VRB05KT P6SM OVC080
     FM291400 26007KT P6SM BKN060
     FM291700 29010G18KT P6SM BKN050
     FM292300 32013KT P6SM FEW150
     FM300600 33005KT P6SM FEW200=

USA.gov is the U.S. government's official web portal to all federal, state and local government web resources and services.